sensor_id;sensor_type;location;lat;lon;timestamp;temperature;humidity
15554;DHT22;7878;44.632;10.942;2023-02-13T00:02:14;7.30;59.60
15554;DHT22;7878;44.632;10.942;2023-02-13T00:04:40;7.30;59.90
15554;DHT22;7878;44.632;10.942;2023-02-13T00:07:08;7.30;59.60
15554;DHT22;7878;44.632;10.942;2023-02-13T00:09:34;7.20;59.40
15554;DHT22;7878;44.632;10.942;2023-02-13T00:12:00;7.20;59.60
15554;DHT22;7878;44.632;10.942;2023-02-13T00:14:25;7.20;59.60
15554;DHT22;7878;44.632;10.942;2023-02-13T00:16:51;7.20;59.80
15554;DHT22;7878;44.632;10.942;2023-02-13T00:19:17;7.20;59.80
15554;DHT22;7878;44.632;10.942;2023-02-13T00:21:42;7.20;59.80
15554;DHT22;7878;44.632;10.942;2023-02-13T00:24:08;7.20;59.80
15554;DHT22;7878;44.632;10.942;2023-02-13T00:26:34;7.20;59.70
15554;DHT22;7878;44.632;10.942;2023-02-13T00:28:59;7.20;59.80
15554;DHT22;7878;44.632;10.942;2023-02-13T00:31:25;7.20;60.20
15554;DHT22;7878;44.632;10.942;2023-02-13T00:33:51;7.10;60.20
15554;DHT22;7878;44.632;10.942;2023-02-13T00:36:18;7.00;60.40
15554;DHT22;7878;44.632;10.942;2023-02-13T00:38:45;7.00;60.10
15554;DHT22;7878;44.632;10.942;2023-02-13T00:41:11;6.90;60.10
15554;DHT22;7878;44.632;10.942;2023-02-13T00:43:37;6.90;60.40
15554;DHT22;7878;44.632;10.942;2023-02-13T00:46:04;6.90;60.50
15554;DHT22;7878;44.632;10.942;2023-02-13T00:48:32;6.80;60.60
15554;DHT22;7878;44.632;10.942;2023-02-13T00:50:58;6.90;60.90
15554;DHT22;7878;44.632;10.942;2023-02-13T00:53:25;6.90;60.60
15554;DHT22;7878;44.632;10.942;2023-02-13T00:55:51;6.90;60.70
15554;DHT22;7878;44.632;10.942;2023-02-13T00:58:18;6.80;60.40
15554;DHT22;7878;44.632;10.942;2023-02-13T01:00:44;6.80;61.10
15554;DHT22;7878;44.632;10.942;2023-02-13T01:03:12;6.80;61.50
15554;DHT22;7878;44.632;10.942;2023-02-13T01:05:38;6.70;61.10
15554;DHT22;7878;44.632;10.942;2023-02-13T01:08:04;6.70;61.30
15554;DHT22;7878;44.632;10.942;2023-02-13T01:10:30;6.70;61.10
15554;DHT22;7878;44.632;10.942;2023-02-13T01:12:55;6.70;61.20
15554;DHT22;7878;44.632;10.942;2023-02-13T01:15:21;6.70;61.40
15554;DHT22;7878;44.632;10.942;2023-02-13T01:17:47;6.60;61.10
15554;DHT22;7878;44.632;10.942;2023-02-13T01:20:14;6.60;61.20
15554;DHT22;7878;44.632;10.942;2023-02-13T01:22:40;6.60;61.30
15554;DHT22;7878;44.632;10.942;2023-02-13T01:25:08;6.70;61.50
15554;DHT22;7878;44.632;10.942;2023-02-13T01:27:34;6.60;61.40
15554;DHT22;7878;44.632;10.942;2023-02-13T01:30:00;6.60;61.30
15554;DHT22;7878;44.632;10.942;2023-02-13T01:32:25;6.60;61.50
15554;DHT22;7878;44.632;10.942;2023-02-13T01:34:51;6.60;61.30
15554;DHT22;7878;44.632;10.942;2023-02-13T01:37:17;6.70;61.50
15554;DHT22;7878;44.632;10.942;2023-02-13T01:39:43;6.70;61.40
15554;DHT22;7878;44.632;10.942;2023-02-13T01:42:20;6.70;61.30
15554;DHT22;7878;44.632;10.942;2023-02-13T01:45:00;6.70;61.60
15554;DHT22;7878;44.632;10.942;2023-02-13T01:47:41;6.70;61.30
15554;DHT22;7878;44.632;10.942;2023-02-13T01:50:18;6.70;61.70
15554;DHT22;7878;44.632;10.942;2023-02-13T01:53:11;6.70;61.60
15554;DHT22;7878;44.632;10.942;2023-02-13T01:55:45;6.70;62.10
15554;DHT22;7878;44.632;10.942;2023-02-13T01:58:15;6.60;61.40
15554;DHT22;7878;44.632;10.942;2023-02-13T02:00:44;6.60;61.20
15554;DHT22;7878;44.632;10.942;2023-02-13T02:03:21;6.60;61.20
15554;DHT22;7878;44.632;10.942;2023-02-13T02:05:50;6.60;61.10
15554;DHT22;7878;44.632;10.942;2023-02-13T02:08:16;6.50;61.00
15554;DHT22;7878;44.632;10.942;2023-02-13T02:10:44;6.50;60.90
15554;DHT22;7878;44.632;10.942;2023-02-13T02:13:13;6.50;61.50
15554;DHT22;7878;44.632;10.942;2023-02-13T02:15:40;6.40;61.50
15554;DHT22;7878;44.632;10.942;2023-02-13T02:18:21;6.40;61.50
15554;DHT22;7878;44.632;10.942;2023-02-13T02:23:46;6.40;61.40
15554;DHT22;7878;44.632;10.942;2023-02-13T02:37:17;6.40;61.40
15554;DHT22;7878;44.632;10.942;2023-02-13T02:48:14;6.30;61.20
15554;DHT22;7878;44.632;10.942;2023-02-13T02:51:47;6.30;61.70
15554;DHT22;7878;44.632;10.942;2023-02-13T02:57:30;6.20;61.30
15554;DHT22;7878;44.632;10.942;2023-02-13T03:00:17;6.20;60.30
15554;DHT22;7878;44.632;10.942;2023-02-13T03:03:16;6.20;60.00
15554;DHT22;7878;44.632;10.942;2023-02-13T03:06:03;6.20;60.40
15554;DHT22;7878;44.632;10.942;2023-02-13T03:08:42;6.20;60.00
15554;DHT22;7878;44.632;10.942;2023-02-13T03:11:27;6.10;60.10
15554;DHT22;7878;44.632;10.942;2023-02-13T03:14:16;6.10;60.00
15554;DHT22;7878;44.632;10.942;2023-02-13T03:16:42;6.10;60.60
15554;DHT22;7878;44.632;10.942;2023-02-13T03:25:51;6.00;60.90
15554;DHT22;7878;44.632;10.942;2023-02-13T03:28:39;6.00;60.20
15554;DHT22;7878;44.632;10.942;2023-02-13T03:34:04;5.90;60.20
15554;DHT22;7878;44.632;10.942;2023-02-13T03:36:46;5.90;60.30
15554;DHT22;7878;44.632;10.942;2023-02-13T03:44:55;5.90;60.00
15554;DHT22;7878;44.632;10.942;2023-02-13T03:47:42;5.90;60.40
15554;DHT22;7878;44.632;10.942;2023-02-13T03:50:08;5.90;59.80
15554;DHT22;7878;44.632;10.942;2023-02-13T03:55:16;5.80;59.90
15554;DHT22;7878;44.632;10.942;2023-02-13T03:58:14;5.80;60.10
15554;DHT22;7878;44.632;10.942;2023-02-13T04:01:01;5.80;59.90
15554;DHT22;7878;44.632;10.942;2023-02-13T04:03:44;5.80;60.00
15554;DHT22;7878;44.632;10.942;2023-02-13T04:06:15;5.70;60.00
15554;DHT22;7878;44.632;10.942;2023-02-13T04:08:44;5.70;59.90
15554;DHT22;7878;44.632;10.942;2023-02-13T04:11:35;5.70;60.40
15554;DHT22;7878;44.632;10.942;2023-02-13T04:14:19;5.70;60.20
15554;DHT22;7878;44.632;10.942;2023-02-13T04:16:50;5.80;60.40
15554;DHT22;7878;44.632;10.942;2023-02-13T04:19:16;5.80;60.40
15554;DHT22;7878;44.632;10.942;2023-02-13T04:21:42;5.80;60.30
15554;DHT22;7878;44.632;10.942;2023-02-13T04:24:08;5.80;60.10
15554;DHT22;7878;44.632;10.942;2023-02-13T04:26:37;5.70;60.50
15554;DHT22;7878;44.632;10.942;2023-02-13T04:29:03;5.70;60.30
15554;DHT22;7878;44.632;10.942;2023-02-13T04:31:29;5.70;61.40
15554;DHT22;7878;44.632;10.942;2023-02-13T04:33:55;5.70;60.80
15554;DHT22;7878;44.632;10.942;2023-02-13T04:36:21;5.70;60.80
15554;DHT22;7878;44.632;10.942;2023-02-13T04:38:47;5.70;60.70
15554;DHT22;7878;44.632;10.942;2023-02-13T04:41:13;5.70;60.80
15554;DHT22;7878;44.632;10.942;2023-02-13T04:43:38;5.80;60.80
15554;DHT22;7878;44.632;10.942;2023-02-13T04:46:04;5.80;60.60
15554;DHT22;7878;44.632;10.942;2023-02-13T04:48:30;5.80;60.80
15554;DHT22;7878;44.632;10.942;2023-02-13T04:50:56;5.80;60.90
15554;DHT22;7878;44.632;10.942;2023-02-13T04:53:21;5.80;60.50
15554;DHT22;7878;44.632;10.942;2023-02-13T04:55:47;5.80;60.90
15554;DHT22;7878;44.632;10.942;2023-02-13T04:58:13;5.70;60.80
15554;DHT22;7878;44.632;10.942;2023-02-13T05:00:38;5.80;60.60
15554;DHT22;7878;44.632;10.942;2023-02-13T05:03:06;5.70;60.80
15554;DHT22;7878;44.632;10.942;2023-02-13T05:05:33;5.70;61.40
15554;DHT22;7878;44.632;10.942;2023-02-13T05:07:59;5.70;61.00
15554;DHT22;7878;44.632;10.942;2023-02-13T05:10:25;5.70;61.10
15554;DHT22;7878;44.632;10.942;2023-02-13T05:12:51;5.70;60.90
15554;DHT22;7878;44.632;10.942;2023-02-13T05:15:16;5.70;61.20
15554;DHT22;7878;44.632;10.942;2023-02-13T05:17:43;5.80;61.20
15554;DHT22;7878;44.632;10.942;2023-02-13T05:20:10;5.80;61.10
15554;DHT22;7878;44.632;10.942;2023-02-13T05:22:36;5.80;61.10
15554;DHT22;7878;44.632;10.942;2023-02-13T05:25:20;5.80;61.30
15554;DHT22;7878;44.632;10.942;2023-02-13T05:27:46;5.70;61.00
15554;DHT22;7878;44.632;10.942;2023-02-13T05:30:12;5.70;61.20
15554;DHT22;7878;44.632;10.942;2023-02-13T05:32:38;5.70;61.40
15554;DHT22;7878;44.632;10.942;2023-02-13T05:35:04;5.70;61.80
15554;DHT22;7878;44.632;10.942;2023-02-13T05:37:30;5.60;61.50
15554;DHT22;7878;44.632;10.942;2023-02-13T05:39:56;5.70;61.60
15554;DHT22;7878;44.632;10.942;2023-02-13T05:42:21;5.70;61.90
15554;DHT22;7878;44.632;10.942;2023-02-13T05:44:47;5.70;61.60
15554;DHT22;7878;44.632;10.942;2023-02-13T05:47:13;5.70;61.60
15554;DHT22;7878;44.632;10.942;2023-02-13T05:49:38;5.60;61.70
15554;DHT22;7878;44.632;10.942;2023-02-13T05:52:04;5.70;61.70
15554;DHT22;7878;44.632;10.942;2023-02-13T05:54:30;5.60;61.70
15554;DHT22;7878;44.632;10.942;2023-02-13T05:56:55;5.60;61.80
15554;DHT22;7878;44.632;10.942;2023-02-13T05:59:21;5.60;61.80
15554;DHT22;7878;44.632;10.942;2023-02-13T06:01:46;5.60;61.80
15554;DHT22;7878;44.632;10.942;2023-02-13T06:04:12;5.50;62.10
15554;DHT22;7878;44.632;10.942;2023-02-13T06:06:38;5.50;62.50
15554;DHT22;7878;44.632;10.942;2023-02-13T06:09:04;5.50;62.40
15554;DHT22;7878;44.632;10.942;2023-02-13T06:11:29;5.50;62.60
15554;DHT22;7878;44.632;10.942;2023-02-13T06:13:55;5.50;62.60
15554;DHT22;7878;44.632;10.942;2023-02-13T06:16:21;5.50;62.30
15554;DHT22;7878;44.632;10.942;2023-02-13T06:18:47;5.50;61.80
15554;DHT22;7878;44.632;10.942;2023-02-13T06:21:13;5.60;62.00
15554;DHT22;7878;44.632;10.942;2023-02-13T06:23:38;5.60;62.10
15554;DHT22;7878;44.632;10.942;2023-02-13T06:26:06;5.60;62.00
15554;DHT22;7878;44.632;10.942;2023-02-13T06:28:32;5.60;61.80
15554;DHT22;7878;44.632;10.942;2023-02-13T06:30:58;5.60;61.70
15554;DHT22;7878;44.632;10.942;2023-02-13T06:33:24;5.60;61.50
15554;DHT22;7878;44.632;10.942;2023-02-13T06:35:49;5.50;61.80
15554;DHT22;7878;44.632;10.942;2023-02-13T06:38:15;5.50;61.80
15554;DHT22;7878;44.632;10.942;2023-02-13T06:40:46;5.50;62.00
15554;DHT22;7878;44.632;10.942;2023-02-13T06:43:13;5.60;61.80
15554;DHT22;7878;44.632;10.942;2023-02-13T06:45:39;5.60;61.70
15554;DHT22;7878;44.632;10.942;2023-02-13T06:48:05;5.70;61.40
15554;DHT22;7878;44.632;10.942;2023-02-13T06:50:30;5.60;61.40
15554;DHT22;7878;44.632;10.942;2023-02-13T06:52:56;5.60;61.40
15554;DHT22;7878;44.632;10.942;2023-02-13T06:55:22;5.60;61.50
15554;DHT22;7878;44.632;10.942;2023-02-13T06:57:47;5.60;61.40
15554;DHT22;7878;44.632;10.942;2023-02-13T07:00:15;5.60;61.30
15554;DHT22;7878;44.632;10.942;2023-02-13T07:02:43;5.60;61.20
15554;DHT22;7878;44.632;10.942;2023-02-13T07:05:09;5.60;61.40
15554;DHT22;7878;44.632;10.942;2023-02-13T07:07:37;5.50;61.40
15554;DHT22;7878;44.632;10.942;2023-02-13T07:10:04;5.50;61.40
15554;DHT22;7878;44.632;10.942;2023-02-13T07:12:32;5.60;61.10
15554;DHT22;7878;44.632;10.942;2023-02-13T07:14:58;5.70;61.20
15554;DHT22;7878;44.632;10.942;2023-02-13T07:17:24;5.70;61.00
15554;DHT22;7878;44.632;10.942;2023-02-13T07:19:51;5.80;61.40
15554;DHT22;7878;44.632;10.942;2023-02-13T07:22:17;5.80;60.90
15554;DHT22;7878;44.632;10.942;2023-02-13T07:24:42;5.90;60.60
15554;DHT22;7878;44.632;10.942;2023-02-13T07:27:08;5.90;60.40
15554;DHT22;7878;44.632;10.942;2023-02-13T07:29:34;6.00;60.00
15554;DHT22;7878;44.632;10.942;2023-02-13T07:31:59;6.00;59.90
15554;DHT22;7878;44.632;10.942;2023-02-13T07:34:25;6.00;59.70
15554;DHT22;7878;44.632;10.942;2023-02-13T07:36:51;6.10;59.90
15554;DHT22;7878;44.632;10.942;2023-02-13T07:39:16;6.10;59.80
15554;DHT22;7878;44.632;10.942;2023-02-13T07:41:42;6.20;60.20
15554;DHT22;7878;44.632;10.942;2023-02-13T07:44:08;6.20;60.50
15554;DHT22;7878;44.632;10.942;2023-02-13T07:46:33;6.20;60.10
15554;DHT22;7878;44.632;10.942;2023-02-13T07:48:59;6.30;60.00
15554;DHT22;7878;44.632;10.942;2023-02-13T07:51:25;6.30;59.80
15554;DHT22;7878;44.632;10.942;2023-02-13T07:53:51;6.40;60.00
15554;DHT22;7878;44.632;10.942;2023-02-13T07:56:19;6.40;59.60
15554;DHT22;7878;44.632;10.942;2023-02-13T07:58:45;6.50;59.70
15554;DHT22;7878;44.632;10.942;2023-02-13T08:01:13;6.50;59.70
15554;DHT22;7878;44.632;10.942;2023-02-13T08:03:39;6.50;59.60
15554;DHT22;7878;44.632;10.942;2023-02-13T08:06:05;6.60;59.60
15554;DHT22;7878;44.632;10.942;2023-02-13T08:08:31;6.70;59.40
15554;DHT22;7878;44.632;10.942;2023-02-13T08:11:04;6.70;59.50
15554;DHT22;7878;44.632;10.942;2023-02-13T08:13:48;6.70;59.60
15554;DHT22;7878;44.632;10.942;2023-02-13T08:16:14;6.80;59.40
15554;DHT22;7878;44.632;10.942;2023-02-13T08:18:40;6.80;59.40
15554;DHT22;7878;44.632;10.942;2023-02-13T08:21:06;6.90;59.50
15554;DHT22;7878;44.632;10.942;2023-02-13T08:23:31;6.90;59.20
15554;DHT22;7878;44.632;10.942;2023-02-13T08:26:01;6.90;59.00
15554;DHT22;7878;44.632;10.942;2023-02-13T08:28:28;7.10;59.20
15554;DHT22;7878;44.632;10.942;2023-02-13T08:30:54;7.40;59.50
15554;DHT22;7878;44.632;10.942;2023-02-13T08:33:19;8.50;58.70
15554;DHT22;7878;44.632;10.942;2023-02-13T08:35:45;10.30;56.10
15554;DHT22;7878;44.632;10.942;2023-02-13T08:38:11;12.20;53.40
15554;DHT22;7878;44.632;10.942;2023-02-13T08:40:36;13.50;50.60
15554;DHT22;7878;44.632;10.942;2023-02-13T08:43:03;14.20;49.40
15554;DHT22;7878;44.632;10.942;2023-02-13T08:45:31;14.90;48.50
15554;DHT22;7878;44.632;10.942;2023-02-13T08:47:58;15.50;47.70
15554;DHT22;7878;44.632;10.942;2023-02-13T08:50:24;16.10;47.20
15554;DHT22;7878;44.632;10.942;2023-02-13T08:52:50;16.20;47.00
15554;DHT22;7878;44.632;10.942;2023-02-13T08:55:16;16.20;46.40
15554;DHT22;7878;44.632;10.942;2023-02-13T08:57:42;16.10;46.40
15554;DHT22;7878;44.632;10.942;2023-02-13T09:00:08;16.10;46.70
15554;DHT22;7878;44.632;10.942;2023-02-13T09:02:33;16.00;47.20
15554;DHT22;7878;44.632;10.942;2023-02-13T09:04:59;16.20;47.20
15554;DHT22;7878;44.632;10.942;2023-02-13T09:07:25;16.10;47.10
15554;DHT22;7878;44.632;10.942;2023-02-13T09:09:50;16.10;47.20
15554;DHT22;7878;44.632;10.942;2023-02-13T09:12:16;16.70;47.30
15554;DHT22;7878;44.632;10.942;2023-02-13T09:14:42;17.80;47.00
15554;DHT22;7878;44.632;10.942;2023-02-13T09:17:07;18.80;45.50
15554;DHT22;7878;44.632;10.942;2023-02-13T09:19:33;18.70;44.60
15554;DHT22;7878;44.632;10.942;2023-02-13T09:21:59;18.00;44.90
15554;DHT22;7878;44.632;10.942;2023-02-13T09:24:25;17.50;45.60
15554;DHT22;7878;44.632;10.942;2023-02-13T09:26:50;17.00;46.30
15554;DHT22;7878;44.632;10.942;2023-02-13T09:29:16;16.70;46.50
15554;DHT22;7878;44.632;10.942;2023-02-13T09:31:42;16.70;46.90
15554;DHT22;7878;44.632;10.942;2023-02-13T09:34:07;16.60;47.00
15554;DHT22;7878;44.632;10.942;2023-02-13T09:36:33;16.50;47.00
15554;DHT22;7878;44.632;10.942;2023-02-13T09:39:00;15.60;47.20
15554;DHT22;7878;44.632;10.942;2023-02-13T09:41:38;14.90;47.90
15554;DHT22;7878;44.632;10.942;2023-02-13T09:47:20;14.10;49.00
15554;DHT22;7878;44.632;10.942;2023-02-13T09:49:53;13.70;49.30
15554;DHT22;7878;44.632;10.942;2023-02-13T09:52:20;13.60;50.00
15554;DHT22;7878;44.632;10.942;2023-02-13T09:54:46;13.60;50.20
15554;DHT22;7878;44.632;10.942;2023-02-13T10:13:30;20.80;44.40
15554;DHT22;7878;44.632;10.942;2023-02-13T10:18:45;20.60;44.00
15554;DHT22;7878;44.632;10.942;2023-02-13T10:21:13;19.90;43.90
15554;DHT22;7878;44.632;10.942;2023-02-13T10:26:24;19.30;44.60
15554;DHT22;7878;44.632;10.942;2023-02-13T10:29:11;19.40;44.60
15554;DHT22;7878;44.632;10.942;2023-02-13T10:31:59;19.70;45.30
15554;DHT22;7878;44.632;10.942;2023-02-13T10:34:28;20.20;44.90
15554;DHT22;7878;44.632;10.942;2023-02-13T10:36:56;20.80;44.10
15554;DHT22;7878;44.632;10.942;2023-02-13T10:39:25;21.70;43.90
15554;DHT22;7878;44.632;10.942;2023-02-13T10:42:10;23.00;42.30
15554;DHT22;7878;44.632;10.942;2023-02-13T10:44:53;24.20;40.80
15554;DHT22;7878;44.632;10.942;2023-02-13T10:53:10;25.70;40.20
15554;DHT22;7878;44.632;10.942;2023-02-13T11:01:15;31.40;37.30
15554;DHT22;7878;44.632;10.942;2023-02-13T11:03:43;32.10;36.30
15554;DHT22;7878;44.632;10.942;2023-02-13T11:06:14;32.90;36.50
15554;DHT22;7878;44.632;10.942;2023-02-13T11:08:44;33.30;35.00
15554;DHT22;7878;44.632;10.942;2023-02-13T11:11:32;33.30;34.60
15554;DHT22;7878;44.632;10.942;2023-02-13T11:14:08;33.20;32.20
15554;DHT22;7878;44.632;10.942;2023-02-13T11:16:40;33.50;32.90
15554;DHT22;7878;44.632;10.942;2023-02-13T11:19:16;33.60;34.50
15554;DHT22;7878;44.632;10.942;2023-02-13T11:21:43;32.70;33.70
15554;DHT22;7878;44.632;10.942;2023-02-13T11:24:20;30.80;35.40
15554;DHT22;7878;44.632;10.942;2023-02-13T11:27:04;29.30;34.40
15554;DHT22;7878;44.632;10.942;2023-02-13T11:29:34;28.70;36.50
15554;DHT22;7878;44.632;10.942;2023-02-13T11:32:23;29.90;37.40
15554;DHT22;7878;44.632;10.942;2023-02-13T11:34:50;31.80;34.40
15554;DHT22;7878;44.632;10.942;2023-02-13T11:37:19;33.40;36.60
15554;DHT22;7878;44.632;10.942;2023-02-13T11:39:48;34.60;35.20
15554;DHT22;7878;44.632;10.942;2023-02-13T11:44:50;35.90;33.50
15554;DHT22;7878;44.632;10.942;2023-02-13T11:47:35;36.80;32.90
15554;DHT22;7878;44.632;10.942;2023-02-13T11:50:02;37.30;30.60
15554;DHT22;7878;44.632;10.942;2023-02-13T11:52:33;37.50;32.90
15554;DHT22;7878;44.632;10.942;2023-02-13T11:55:04;37.10;32.40
15554;DHT22;7878;44.632;10.942;2023-02-13T11:58:03;36.90;32.60
15554;DHT22;7878;44.632;10.942;2023-02-13T12:00:35;36.50;30.40
15554;DHT22;7878;44.632;10.942;2023-02-13T12:03:33;36.50;30.90
15554;DHT22;7878;44.632;10.942;2023-02-13T12:08:35;34.90;32.10
15554;DHT22;7878;44.632;10.942;2023-02-13T12:11:11;32.80;33.30
15554;DHT22;7878;44.632;10.942;2023-02-13T12:13:39;32.50;34.30
15554;DHT22;7878;44.632;10.942;2023-02-13T12:16:13;33.60;35.10
15554;DHT22;7878;44.632;10.942;2023-02-13T12:18:47;34.80;32.90
15554;DHT22;7878;44.632;10.942;2023-02-13T12:21:27;35.40;32.40
15554;DHT22;7878;44.632;10.942;2023-02-13T12:24:12;35.40;32.50
15554;DHT22;7878;44.632;10.942;2023-02-13T12:26:51;34.60;30.00
15554;DHT22;7878;44.632;10.942;2023-02-13T12:32:09;34.10;33.40
15554;DHT22;7878;44.632;10.942;2023-02-13T12:37:51;35.20;30.10
15554;DHT22;7878;44.632;10.942;2023-02-13T12:45:48;35.90;30.30
15554;DHT22;7878;44.632;10.942;2023-02-13T12:51:11;36.20;30.00
15554;DHT22;7878;44.632;10.942;2023-02-13T12:53:55;36.40;31.10
15554;DHT22;7878;44.632;10.942;2023-02-13T12:56:37;36.20;32.00
15554;DHT22;7878;44.632;10.942;2023-02-13T12:59:22;35.60;30.30
15554;DHT22;7878;44.632;10.942;2023-02-13T13:10:34;27.30;34.00
15554;DHT22;7878;44.632;10.942;2023-02-13T13:19:00;21.20;39.70
15554;DHT22;7878;44.632;10.942;2023-02-13T13:27:16;18.90;41.90
15554;DHT22;7878;44.632;10.942;2023-02-13T13:29:47;18.50;42.60
15554;DHT22;7878;44.632;10.942;2023-02-13T13:32:17;18.30;42.80
15554;DHT22;7878;44.632;10.942;2023-02-13T13:34:44;18.20;43.60
15554;DHT22;7878;44.632;10.942;2023-02-13T13:48:38;17.50;44.90
15554;DHT22;7878;44.632;10.942;2023-02-13T13:51:15;17.30;44.20
15554;DHT22;7878;44.632;10.942;2023-02-13T14:07:25;16.50;44.90
15554;DHT22;7878;44.632;10.942;2023-02-13T14:09:57;16.40;44.40
15554;DHT22;7878;44.632;10.942;2023-02-13T14:14:52;16.30;44.60
15554;DHT22;7878;44.632;10.942;2023-02-13T14:26:33;16.20;45.90
15554;DHT22;7878;44.632;10.942;2023-02-13T14:31:57;15.90;45.60
15554;DHT22;7878;44.632;10.942;2023-02-13T14:34:27;15.80;45.50
15554;DHT22;7878;44.632;10.942;2023-02-13T14:37:17;15.80;45.20
15554;DHT22;7878;44.632;10.942;2023-02-13T14:42:37;15.80;46.30
15554;DHT22;7878;44.632;10.942;2023-02-13T14:45:10;15.80;45.30
15554;DHT22;7878;44.632;10.942;2023-02-13T14:47:40;15.80;45.40
15554;DHT22;7878;44.632;10.942;2023-02-13T14:50:15;15.80;45.30
15554;DHT22;7878;44.632;10.942;2023-02-13T14:52:45;15.80;45.90
15554;DHT22;7878;44.632;10.942;2023-02-13T14:55:22;15.80;46.10
15554;DHT22;7878;44.632;10.942;2023-02-13T14:57:55;15.70;46.30
15554;DHT22;7878;44.632;10.942;2023-02-13T15:00:33;15.70;46.60
15554;DHT22;7878;44.632;10.942;2023-02-13T15:06:10;15.60;47.60
15554;DHT22;7878;44.632;10.942;2023-02-13T15:08:44;15.50;46.80
15554;DHT22;7878;44.632;10.942;2023-02-13T15:11:11;15.50;46.90
15554;DHT22;7878;44.632;10.942;2023-02-13T15:14:32;15.50;46.60
15554;DHT22;7878;44.632;10.942;2023-02-13T15:17:20;15.50;47.10
15554;DHT22;7878;44.632;10.942;2023-02-13T15:19:50;15.40;47.40
15554;DHT22;7878;44.632;10.942;2023-02-13T15:22:26;15.40;46.80
15554;DHT22;7878;44.632;10.942;2023-02-13T15:24:54;15.30;46.70
15554;DHT22;7878;44.632;10.942;2023-02-13T15:27:26;15.20;47.00
15554;DHT22;7878;44.632;10.942;2023-02-13T15:30:13;15.10;47.20
15554;DHT22;7878;44.632;10.942;2023-02-13T15:32:40;15.10;47.50
15554;DHT22;7878;44.632;10.942;2023-02-13T15:35:33;15.00;47.30
15554;DHT22;7878;44.632;10.942;2023-02-13T15:38:15;15.10;48.10
15554;DHT22;7878;44.632;10.942;2023-02-13T15:40:42;15.00;47.30
15554;DHT22;7878;44.632;10.942;2023-02-13T15:43:21;15.00;47.50
15554;DHT22;7878;44.632;10.942;2023-02-13T15:45:47;14.90;48.00
15554;DHT22;7878;44.632;10.942;2023-02-13T15:48:16;14.90;47.70
15554;DHT22;7878;44.632;10.942;2023-02-13T15:50:42;14.80;47.80
15554;DHT22;7878;44.632;10.942;2023-02-13T15:53:15;14.80;47.60
15554;DHT22;7878;44.632;10.942;2023-02-13T15:55:59;14.70;48.00
15554;DHT22;7878;44.632;10.942;2023-02-13T15:58:30;14.70;48.40
15554;DHT22;7878;44.632;10.942;2023-02-13T16:00:58;14.70;48.20
15554;DHT22;7878;44.632;10.942;2023-02-13T16:03:25;14.70;48.20
15554;DHT22;7878;44.632;10.942;2023-02-13T16:05:52;14.60;47.90
15554;DHT22;7878;44.632;10.942;2023-02-13T16:08:35;14.60;48.40
15554;DHT22;7878;44.632;10.942;2023-02-13T16:11:35;14.50;49.00
15554;DHT22;7878;44.632;10.942;2023-02-13T16:14:28;14.50;49.10
15554;DHT22;7878;44.632;10.942;2023-02-13T16:17:05;14.40;49.80
15554;DHT22;7878;44.632;10.942;2023-02-13T16:19:39;14.30;48.90
15554;DHT22;7878;44.632;10.942;2023-02-13T16:35:44;13.90;50.50
15554;DHT22;7878;44.632;10.942;2023-02-13T16:41:27;13.80;50.90
15554;DHT22;7878;44.632;10.942;2023-02-13T16:44:02;13.70;49.80
15554;DHT22;7878;44.632;10.942;2023-02-13T16:46:42;13.70;50.70
15554;DHT22;7878;44.632;10.942;2023-02-13T16:49:17;13.60;50.70
15554;DHT22;7878;44.632;10.942;2023-02-13T16:54:28;13.50;50.60
15554;DHT22;7878;44.632;10.942;2023-02-13T16:56:59;13.40;50.80
15554;DHT22;7878;44.632;10.942;2023-02-13T17:07:18;13.20;51.70
15554;DHT22;7878;44.632;10.942;2023-02-13T17:09:46;13.10;51.90
15554;DHT22;7878;44.632;10.942;2023-02-13T17:12:17;13.10;51.60
15554;DHT22;7878;44.632;10.942;2023-02-13T17:14:43;13.00;51.90
15554;DHT22;7878;44.632;10.942;2023-02-13T17:17:17;13.00;52.30
15554;DHT22;7878;44.632;10.942;2023-02-13T17:19:43;12.90;52.30
15554;DHT22;7878;44.632;10.942;2023-02-13T17:22:21;12.90;52.20
15554;DHT22;7878;44.632;10.942;2023-02-13T17:24:47;12.80;52.40
15554;DHT22;7878;44.632;10.942;2023-02-13T17:27:13;12.80;52.40
15554;DHT22;7878;44.632;10.942;2023-02-13T17:29:39;12.70;52.30
15554;DHT22;7878;44.632;10.942;2023-02-13T17:32:04;12.70;52.30
15554;DHT22;7878;44.632;10.942;2023-02-13T17:34:30;12.60;52.50
15554;DHT22;7878;44.632;10.942;2023-02-13T17:36:56;12.60;52.50
15554;DHT22;7878;44.632;10.942;2023-02-13T17:39:21;12.60;52.60
15554;DHT22;7878;44.632;10.942;2023-02-13T17:41:47;12.50;52.80
15554;DHT22;7878;44.632;10.942;2023-02-13T17:44:13;12.50;52.70
15554;DHT22;7878;44.632;10.942;2023-02-13T17:46:39;12.40;53.00
15554;DHT22;7878;44.632;10.942;2023-02-13T17:49:05;12.40;53.00
15554;DHT22;7878;44.632;10.942;2023-02-13T17:51:31;12.40;53.20
15554;DHT22;7878;44.632;10.942;2023-02-13T17:53:57;12.30;53.10
15554;DHT22;7878;44.632;10.942;2023-02-13T17:56:23;12.30;53.30
15554;DHT22;7878;44.632;10.942;2023-02-13T17:58:48;12.30;53.80
15554;DHT22;7878;44.632;10.942;2023-02-13T18:01:14;12.20;53.90
15554;DHT22;7878;44.632;10.942;2023-02-13T18:03:40;12.20;53.80
15554;DHT22;7878;44.632;10.942;2023-02-13T18:06:09;12.10;53.80
15554;DHT22;7878;44.632;10.942;2023-02-13T18:08:35;12.10;54.00
15554;DHT22;7878;44.632;10.942;2023-02-13T18:11:01;12.10;54.30
15554;DHT22;7878;44.632;10.942;2023-02-13T18:13:27;12.00;54.00
15554;DHT22;7878;44.632;10.942;2023-02-13T18:15:52;12.00;54.20
15554;DHT22;7878;44.632;10.942;2023-02-13T18:18:18;11.90;54.70
15554;DHT22;7878;44.632;10.942;2023-02-13T18:20:43;11.90;54.90
15554;DHT22;7878;44.632;10.942;2023-02-13T18:23:09;11.90;54.90
15554;DHT22;7878;44.632;10.942;2023-02-13T18:25:35;11.80;54.70
15554;DHT22;7878;44.632;10.942;2023-02-13T18:28:01;11.80;55.00
15554;DHT22;7878;44.632;10.942;2023-02-13T18:30:27;11.80;55.10
15554;DHT22;7878;44.632;10.942;2023-02-13T18:32:54;11.80;55.30
15554;DHT22;7878;44.632;10.942;2023-02-13T18:35:21;11.70;55.40
15554;DHT22;7878;44.632;10.942;2023-02-13T18:37:47;11.70;55.70
15554;DHT22;7878;44.632;10.942;2023-02-13T18:40:13;11.70;55.90
15554;DHT22;7878;44.632;10.942;2023-02-13T18:42:42;11.60;55.80
15554;DHT22;7878;44.632;10.942;2023-02-13T18:45:09;11.60;56.60
15554;DHT22;7878;44.632;10.942;2023-02-13T18:47:36;11.60;56.20
15554;DHT22;7878;44.632;10.942;2023-02-13T18:50:02;11.60;56.10
15554;DHT22;7878;44.632;10.942;2023-02-13T18:52:28;11.60;56.50
15554;DHT22;7878;44.632;10.942;2023-02-13T18:54:54;11.50;56.60
15554;DHT22;7878;44.632;10.942;2023-02-13T18:57:19;11.50;56.50
15554;DHT22;7878;44.632;10.942;2023-02-13T18:59:46;11.50;56.20
15554;DHT22;7878;44.632;10.942;2023-02-13T19:02:12;11.50;56.60
15554;DHT22;7878;44.632;10.942;2023-02-13T19:04:37;11.40;57.00
15554;DHT22;7878;44.632;10.942;2023-02-13T19:07:03;11.40;56.90
15554;DHT22;7878;44.632;10.942;2023-02-13T19:09:29;11.30;57.00